createdAt,value
2019-02-05T00:00:12.910Z,99604.50
2019-02-05T00:02:17.209Z,99609.16
2019-02-05T00:04:21.274Z,99607.09
2019-02-05T00:06:25.295Z,99615.50
2019-02-05T00:08:31.469Z,99613.81
2019-02-05T00:10:35.420Z,99605.45
2019-02-05T00:12:39.364Z,99600.44
2019-02-05T00:14:43.496Z,99588.69
2019-02-05T00:16:49.332Z,99594.72
2019-02-05T00:18:53.423Z,99599.55
2019-02-05T00:20:57.511Z,99591.15
2019-02-05T00:23:01.426Z,99585.92
2019-02-05T00:25:05.772Z,99574.83
2019-02-05T00:27:12.633Z,99572.11
2019-02-05T00:29:19.627Z,99568.52
2019-02-05T00:31:23.710Z,99585.75
2019-02-05T00:33:27.815Z,99586.05
2019-02-05T00:35:31.853Z,99576.68
2019-02-05T00:37:36.415Z,99571.98
2019-02-05T00:39:42.074Z,99563.23
2019-02-05T00:41:46.030Z,99563.22
2019-02-05T00:43:52.933Z,99560.66
2019-02-05T00:45:57.014Z,99561.63
2019-02-05T00:48:01.081Z,99563.94
2019-02-05T00:50:06.390Z,99573.13
2019-02-05T00:52:10.383Z,99580.34
2019-02-05T00:54:14.382Z,99580.34
2019-02-05T00:56:18.442Z,99577.34
2019-02-05T00:58:25.354Z,99576.20
2019-02-05T01:00:33.427Z,99574.86
2019-02-05T01:02:37.515Z,99585.09
2019-02-05T01:04:43.187Z,99582.29
2019-02-05T01:06:47.535Z,99573.27
2019-02-05T01:08:51.449Z,99571.74
2019-02-05T01:10:55.380Z,99572.23
2019-02-05T01:12:59.314Z,99578.44
2019-02-05T01:15:03.765Z,99570.90
2019-02-05T01:17:07.938Z,99573.41
2019-02-05T01:19:11.944Z,99574.93
2019-02-05T01:21:16.015Z,99585.02
2019-02-05T01:23:21.488Z,99591.72
2019-02-05T01:25:25.658Z,99590.21
2019-02-05T01:27:29.918Z,99593.55
2019-02-05T01:29:33.928Z,99584.97
2019-02-05T01:31:39.027Z,99577.91
2019-02-05T01:33:43.124Z,99565.16
2019-02-05T01:35:47.277Z,99564.44
2019-02-05T01:37:51.426Z,99570.76
2019-02-05T01:39:55.881Z,99567.22
2019-02-05T01:41:59.750Z,99563.51
2019-02-05T01:44:03.840Z,99553.77
2019-02-05T01:46:07.844Z,99562.78
2019-02-05T01:48:15.281Z,99566.61
2019-02-05T01:50:26.705Z,99564.95
2019-02-05T01:52:30.830Z,99546.52
2019-02-05T01:54:34.744Z,99556.86
2019-02-05T01:56:40.750Z,99558.73
2019-02-05T01:58:44.436Z,99556.86
2019-02-05T02:00:48.831Z,99549.87
2019-02-05T02:02:52.757Z,99549.56
2019-02-05T02:04:56.529Z,99538.84
2019-02-05T02:07:00.469Z,99542.62
2019-02-05T02:09:07.930Z,99534.56
2019-02-05T02:11:11.966Z,99533.84
2019-02-05T02:13:18.837Z,99536.98
2019-02-05T02:15:22.907Z,99534.61
2019-02-05T02:17:26.827Z,99526.89
2019-02-05T02:19:30.949Z,99532.41
2019-02-05T02:21:36.540Z,99539.39
2019-02-05T02:23:40.720Z,99542.92
2019-02-05T02:25:47.314Z,99533.20
2019-02-05T02:27:51.617Z,99523.52
2019-02-05T02:29:55.399Z,99523.16
2019-02-05T02:31:59.255Z,99516.28
2019-02-05T02:34:03.404Z,99517.80
2019-02-05T02:36:07.368Z,99515.13
2019-02-05T02:38:11.422Z,99512.13
2019-02-05T02:40:15.685Z,99515.62
2019-02-05T02:42:20.699Z,99515.81
2019-02-05T02:44:24.794Z,99516.70
2019-02-05T02:46:28.790Z,99509.84
2019-02-05T02:48:33.797Z,99502.80
2019-02-05T02:50:37.844Z,99495.92
2019-02-05T02:52:41.874Z,99493.25
2019-02-05T02:54:45.724Z,99490.58
2019-02-05T02:56:49.747Z,99493.77
2019-02-05T02:58:53.745Z,99489.05
2019-02-05T03:00:58.667Z,99484.72
2019-02-05T03:03:03.796Z,99488.38
2019-02-05T03:05:10.476Z,99477.66
2019-02-05T03:07:14.405Z,99479.59
2019-02-05T03:09:18.494Z,99480.56
2019-02-05T03:11:22.414Z,99474.16
2019-02-05T03:13:26.405Z,99477.11
2019-02-05T03:15:30.536Z,99476.53
2019-02-05T03:17:34.672Z,99472.66
2019-02-05T03:19:38.702Z,99484.88
2019-02-05T03:21:42.694Z,99488.10
2019-02-05T03:23:46.689Z,99492.14
2019-02-05T03:25:50.658Z,99491.84
2019-02-05T03:27:54.739Z,99487.53
2019-02-05T03:29:59.783Z,99487.22
2019-02-05T03:32:06.045Z,99486.21
2019-02-05T03:34:10.011Z,99479.88
2019-02-05T03:36:14.009Z,99476.03
2019-02-05T03:38:19.125Z,99477.00
2019-02-05T03:41:09.044Z,99476.45
2019-02-05T03:43:13.013Z,99479.61
2019-02-05T03:45:16.975Z,99488.65
2019-02-05T03:47:21.061Z,99493.17
2019-02-05T03:49:24.978Z,99505.59
2019-02-05T03:52:08.682Z,99502.45
2019-02-05T03:54:44.534Z,99514.38
2019-02-05T03:56:59.451Z,99511.61
2019-02-05T03:59:32.706Z,99514.84
2019-02-05T04:02:35.930Z,99516.07
2019-02-05T04:05:11.640Z,99511.58
2019-02-05T04:07:51.225Z,99512.31
2019-02-05T04:10:50.466Z,99508.84
2019-02-05T04:13:38.995Z,99520.09
2019-02-05T04:15:57.878Z,99506.56
2019-02-05T04:18:21.820Z,99497.72
2019-02-05T04:21:15.946Z,99490.67
2019-02-05T04:24:03.830Z,99490.97
2019-02-05T04:26:26.855Z,99497.34
2019-02-05T04:29:14.842Z,99499.31
2019-02-05T04:31:45.707Z,99502.66
2019-02-05T04:34:20.427Z,99505.80
2019-02-05T04:37:03.181Z,99507.43
2019-02-05T04:39:47.714Z,99508.23
2019-02-05T04:42:15.575Z,99519.78
2019-02-05T04:45:04.271Z,99524.15
2019-02-05T04:47:31.248Z,99513.45
2019-02-05T04:50:15.004Z,99510.24
2019-02-05T04:53:04.478Z,99515.27
2019-02-05T04:55:39.449Z,99521.30
2019-02-05T04:58:31.408Z,99521.13
2019-02-05T05:01:05.280Z,99515.46
2019-02-05T05:03:42.086Z,99513.63
2019-02-05T05:06:12.847Z,99517.64
2019-02-05T05:08:58.531Z,99514.14
2019-02-05T05:11:02.373Z,99531.89
2019-02-05T05:13:06.595Z,99532.38
2019-02-05T05:15:12.948Z,99517.66
2019-02-05T05:17:16.763Z,99517.49
2019-02-05T05:19:20.708Z,99522.05
2019-02-05T05:21:24.777Z,99526.06
2019-02-05T05:23:29.173Z,99527.76
2019-02-05T05:25:33.458Z,99532.75
2019-02-05T05:27:37.265Z,99534.28
2019-02-05T05:29:41.185Z,99540.48
2019-02-05T05:31:45.190Z,99559.05
2019-02-05T05:33:49.157Z,99559.41
2019-02-05T05:35:53.283Z,99553.58
2019-02-05T05:37:57.583Z,99547.61
2019-02-05T05:40:03.358Z,99540.26
2019-02-05T05:42:07.554Z,99533.70
2019-02-05T05:44:11.715Z,99531.36
2019-02-05T05:46:15.850Z,99534.53
2019-02-05T05:48:19.754Z,99531.86
2019-02-05T05:50:23.670Z,99530.84
2019-02-05T05:52:28.244Z,99545.26
2019-02-05T05:54:33.673Z,99542.58
2019-02-05T05:56:39.771Z,99538.56
2019-02-05T05:58:44.436Z,99537.21
2019-02-05T06:00:48.377Z,99544.58
2019-02-05T06:02:52.619Z,99545.61
2019-02-05T06:04:56.743Z,99546.67
2019-02-05T06:07:00.723Z,99546.42
2019-02-05T06:09:07.987Z,99551.34
2019-02-05T06:11:12.036Z,99553.36
2019-02-05T06:13:16.428Z,99555.50
2019-02-05T06:15:20.480Z,99563.03
2019-02-05T06:17:24.316Z,99562.85
2019-02-05T06:19:28.353Z,99564.52
2019-02-05T06:21:32.267Z,99559.98
2019-02-05T06:23:36.935Z,99557.62
2019-02-05T06:25:40.887Z,99552.75
2019-02-05T06:27:44.769Z,99560.77
2019-02-05T06:29:48.850Z,99574.30
2019-02-05T06:31:53.191Z,99571.30
2019-02-05T06:33:57.303Z,99577.28
2019-02-05T06:36:01.229Z,99570.08
2019-02-05T06:38:05.243Z,99576.42
2019-02-05T06:40:10.121Z,99577.08
2019-02-05T06:42:14.021Z,99576.89
2019-02-05T06:44:17.889Z,99581.20
2019-02-05T06:46:21.907Z,99585.33
2019-02-05T06:48:25.940Z,99589.83
2019-02-05T06:50:29.927Z,99592.02
2019-02-05T06:52:33.909Z,99601.41
2019-02-05T06:54:38.020Z,99601.58
2019-02-05T06:56:42.557Z,99600.66
2019-02-05T06:58:46.857Z,99607.02
2019-02-05T07:00:52.857Z,99609.72
2019-02-05T07:02:56.777Z,99600.73
2019-02-05T07:05:03.388Z,99593.24
2019-02-05T07:07:07.299Z,99594.11
2019-02-05T07:09:11.361Z,99597.14
2019-02-05T07:11:15.538Z,99613.39
2019-02-05T07:13:19.452Z,99606.72
2019-02-05T07:15:23.488Z,99592.84
2019-02-05T07:17:27.465Z,99593.69
2019-02-05T07:19:31.635Z,99594.50
2019-02-05T07:21:35.764Z,99600.52
2019-02-05T07:23:40.187Z,99602.35
2019-02-05T07:25:45.204Z,99601.02
2019-02-05T07:27:49.245Z,99600.03
2019-02-05T07:29:54.342Z,99602.53
2019-02-05T07:31:58.267Z,99608.80
2019-02-05T07:34:02.687Z,99616.48
2019-02-05T07:36:07.663Z,99617.52
2019-02-05T07:38:11.732Z,99617.71
2019-02-05T07:40:16.901Z,99616.73
2019-02-05T07:42:21.066Z,99619.91
2019-02-05T07:44:25.115Z,99622.78
2019-02-05T07:46:30.792Z,99627.83
2019-02-05T07:48:34.648Z,99627.52
2019-02-05T07:50:38.581Z,99629.05
2019-02-05T07:52:44.917Z,99625.52
2019-02-05T07:54:49.017Z,99624.37
2019-02-05T07:56:54.818Z,99626.06
2019-02-05T07:59:09.630Z,99622.89
2019-02-05T08:01:04.528Z,99624.06
2019-02-05T08:03:08.812Z,99626.25
2019-02-05T08:05:15.937Z,99627.41
2019-02-05T08:07:19.987Z,99628.92
2019-02-05T08:09:23.893Z,99626.91
2019-02-05T08:11:27.884Z,99621.88
2019-02-05T08:13:32.192Z,99617.67
2019-02-05T08:15:36.204Z,99621.73
2019-02-05T08:17:40.211Z,99617.19
2019-02-05T08:19:44.215Z,99616.56
2019-02-05T08:21:48.553Z,99620.58
2019-02-05T08:23:52.843Z,99617.90
2019-02-05T08:25:56.915Z,99628.27
2019-02-05T08:28:01.539Z,99622.23
2019-02-05T08:30:09.930Z,99622.05
2019-02-05T08:32:14.264Z,99621.56
2019-02-05T08:34:18.145Z,99621.25
2019-02-05T08:36:22.271Z,99617.74
2019-02-05T08:38:26.108Z,99618.28
2019-02-05T08:40:30.166Z,99617.97
2019-02-05T08:42:34.124Z,99626.69
2019-02-05T08:44:38.195Z,99632.22
2019-02-05T08:46:42.022Z,99636.42
2019-02-05T08:48:46.081Z,99630.56
2019-02-05T08:50:52.281Z,99626.73
2019-02-05T08:52:57.201Z,99622.71
2019-02-05T08:55:02.639Z,99635.45
2019-02-05T08:57:06.563Z,99632.10
2019-02-05T08:59:10.433Z,99632.11
2019-02-05T09:01:14.710Z,99636.85
2019-02-05T09:03:18.881Z,99629.84
2019-02-05T09:05:22.860Z,99631.36
2019-02-05T09:07:26.826Z,99639.77
2019-02-05T09:09:31.386Z,99644.15
2019-02-05T09:11:35.619Z,99644.65
2019-02-05T09:13:39.611Z,99644.69
2019-02-05T09:15:43.549Z,99640.67
2019-02-05T09:17:47.583Z,99645.36
2019-02-05T09:19:51.588Z,99654.75
2019-02-05T09:21:55.650Z,99653.28
2019-02-05T09:23:59.512Z,99656.00
2019-02-05T09:26:03.589Z,99660.39
2019-02-05T09:28:07.607Z,99656.22
2019-02-05T09:30:17.459Z,99655.55
2019-02-05T09:32:22.904Z,99658.94
2019-02-05T09:34:26.711Z,99666.36
2019-02-05T09:36:30.799Z,99671.90
2019-02-05T09:38:34.655Z,99678.32
2019-02-05T09:40:38.796Z,99676.16
2019-02-05T09:42:42.679Z,99665.77
2019-02-05T09:44:46.745Z,99672.67
2019-02-05T09:46:50.797Z,99676.22
2019-02-05T09:48:54.736Z,99673.17
2019-02-05T09:50:59.022Z,99669.50
2019-02-05T09:53:04.029Z,99664.47
2019-02-05T09:55:08.818Z,99666.16
2019-02-05T09:57:13.033Z,99672.04
2019-02-05T09:59:17.553Z,99679.08
2019-02-05T10:01:21.846Z,99678.23
2019-02-05T10:03:25.868Z,99676.24
2019-02-05T10:05:30.471Z,99679.76
2019-02-05T10:07:35.568Z,99676.90
2019-02-05T10:09:42.440Z,99685.30
2019-02-05T10:11:47.838Z,99688.99
2019-02-05T10:13:51.874Z,99683.30
2019-02-05T10:15:55.776Z,99694.37
2019-02-05T10:17:59.725Z,99691.19
2019-02-05T10:20:03.932Z,99689.97
2019-02-05T10:22:09.324Z,99691.33
2019-02-05T10:24:13.343Z,99689.48
2019-02-05T10:26:17.599Z,99684.25
2019-02-05T10:28:21.727Z,99685.77
2019-02-05T10:30:35.273Z,99682.91
2019-02-05T10:32:39.699Z,99683.54
2019-02-05T10:34:43.572Z,99682.80
2019-02-05T10:36:47.650Z,99687.94
2019-02-05T10:38:51.671Z,99681.72
2019-02-05T10:40:55.658Z,99674.38
2019-02-05T10:43:00.407Z,99668.59
2019-02-05T10:45:05.640Z,99671.95
2019-02-05T10:47:09.559Z,99671.55
2019-02-05T10:49:14.075Z,99667.47
2019-02-05T10:51:17.975Z,99658.61
2019-02-05T10:53:21.960Z,99653.41
2019-02-05T10:55:25.974Z,99651.49
2019-02-05T10:57:29.824Z,99647.47
2019-02-05T10:59:35.710Z,99654.83
2019-02-05T11:01:40.839Z,99654.27
2019-02-05T11:03:44.708Z,99652.47
2019-02-05T11:05:48.897Z,99649.72
2019-02-05T11:07:53.054Z,99655.92
2019-02-05T11:09:57.020Z,99656.93
2019-02-05T11:12:03.222Z,99655.22
2019-02-05T11:14:09.590Z,99648.69
2019-02-05T11:16:13.478Z,99650.45
2019-02-05T11:18:17.765Z,99649.58
2019-02-05T11:20:23.494Z,99654.61
2019-02-05T11:22:30.224Z,99656.63
2019-02-05T11:24:38.331Z,99663.48
2019-02-05T11:26:42.307Z,99656.11
2019-02-05T11:28:46.343Z,99660.00
2019-02-05T11:30:50.370Z,99654.05
2019-02-05T11:32:54.496Z,99653.58
2019-02-05T11:35:01.173Z,99652.98
2019-02-05T11:37:06.222Z,99651.86
2019-02-05T11:39:15.113Z,99657.78
2019-02-05T11:41:19.008Z,99660.55
2019-02-05T11:43:22.980Z,99653.73
2019-02-05T11:45:26.870Z,99654.71
2019-02-05T11:47:30.946Z,99659.67
2019-02-05T11:49:34.872Z,99647.16
2019-02-05T11:51:38.946Z,99654.15
2019-02-05T11:53:42.934Z,99653.73
2019-02-05T11:55:46.880Z,99654.70
2019-02-05T11:57:50.806Z,99648.22
2019-02-05T11:59:54.648Z,99649.64
2019-02-05T12:01:59.754Z,99645.84
2019-02-05T12:04:04.554Z,99659.84
2019-02-05T12:06:08.574Z,99651.86
2019-02-05T12:08:14.248Z,99646.67
2019-02-05T12:10:20.431Z,99655.21
2019-02-05T12:12:26.360Z,99657.41
2019-02-05T12:14:39.568Z,99654.11
2019-02-05T12:16:43.536Z,99651.45
2019-02-05T12:18:47.438Z,99658.61
2019-02-05T12:20:51.549Z,99648.97
2019-02-05T12:22:55.445Z,99657.26
2019-02-05T12:24:59.671Z,99647.70
2019-02-05T12:27:03.621Z,99650.47
2019-02-05T12:29:08.683Z,99643.48
2019-02-05T12:31:12.719Z,99644.63
2019-02-05T12:33:16.786Z,99651.10
2019-02-05T12:35:23.768Z,99650.48
2019-02-05T12:37:30.678Z,99641.53
2019-02-05T12:39:34.677Z,99639.28
2019-02-05T12:41:41.227Z,99636.00
2019-02-05T12:43:45.142Z,99628.57
2019-02-05T12:45:50.345Z,99631.53
2019-02-05T12:47:54.960Z,99614.38
2019-02-05T12:50:00.764Z,99618.96
2019-02-05T12:52:04.640Z,99609.45
2019-02-05T12:54:08.758Z,99606.33
2019-02-05T12:56:12.881Z,99616.98
2019-02-05T12:58:17.341Z,99611.55
2019-02-05T13:00:28.545Z,99614.28
2019-02-05T13:02:32.622Z,99613.33
2019-02-05T13:04:36.966Z,99604.05
2019-02-05T13:06:40.980Z,99606.80
2019-02-05T13:08:46.333Z,99605.76
2019-02-05T13:10:53.005Z,99597.99
2019-02-05T13:12:56.923Z,99610.15
2019-02-05T13:15:00.914Z,99603.36
2019-02-05T13:17:05.042Z,99592.28
2019-02-05T13:19:09.104Z,99598.46
2019-02-05T13:21:13.184Z,99591.67
2019-02-05T13:23:17.115Z,99590.05
2019-02-05T13:25:22.804Z,99585.07
2019-02-05T13:27:26.798Z,99579.56
2019-02-05T13:29:30.761Z,99574.73
2019-02-05T13:31:34.766Z,99591.49
2019-02-05T13:33:38.793Z,99586.32
2019-02-05T13:35:44.362Z,99588.52
2019-02-05T13:37:50.214Z,99589.08
2019-02-05T13:39:54.839Z,99590.31
2019-02-05T13:41:59.308Z,99590.73
2019-02-05T13:44:03.551Z,99592.72
2019-02-05T13:46:07.933Z,99594.12
2019-02-05T13:48:11.912Z,99596.83
2019-02-05T13:50:32.122Z,99595.42
2019-02-05T13:52:26.694Z,99595.42
2019-02-05T13:54:30.725Z,99593.64
2019-02-05T13:56:34.683Z,99595.39
2019-02-05T13:58:39.024Z,99594.56
2019-02-05T14:00:50.867Z,99598.47
2019-02-05T14:02:54.905Z,99586.72
2019-02-05T14:05:00.426Z,99588.72
2019-02-05T14:07:04.618Z,99584.95
2019-02-05T14:09:12.872Z,99589.59
2019-02-05T14:11:16.709Z,99589.59
2019-02-05T14:13:20.723Z,99588.95
2019-02-05T14:15:26.719Z,99583.92
2019-02-05T14:17:30.566Z,99588.36
2019-02-05T14:19:35.644Z,99588.86
2019-02-05T14:21:39.659Z,99588.88
2019-02-05T14:23:43.721Z,99593.97
2019-02-05T14:25:47.961Z,99596.03
2019-02-05T14:27:52.008Z,99595.19
2019-02-05T14:29:56.071Z,99599.02
2019-02-05T14:32:00.093Z,99604.92
2019-02-05T14:34:04.495Z,99606.97
2019-02-05T14:36:09.920Z,99608.67
2019-02-05T14:38:14.004Z,99601.28
2019-02-05T14:40:18.760Z,99602.48
2019-02-05T14:42:22.787Z,99596.61
2019-02-05T14:44:30.876Z,99593.75
2019-02-05T14:46:34.929Z,99596.25
2019-02-05T14:48:40.191Z,99598.95
2019-02-05T14:50:45.454Z,99595.89
2019-02-05T14:52:50.670Z,99595.74
2019-02-05T14:54:57.648Z,99598.78
2019-02-05T14:57:01.606Z,99595.70
2019-02-05T14:59:06.668Z,99596.02
2019-02-05T15:01:10.694Z,99594.70
2019-02-05T15:03:15.197Z,99598.82
2019-02-05T15:05:19.360Z,99600.31
2019-02-05T15:07:23.294Z,99602.14
2019-02-05T15:09:30.966Z,99601.44
2019-02-05T15:11:36.113Z,99600.23
2019-02-05T15:13:40.051Z,99597.87
2019-02-05T15:15:44.077Z,99604.78
2019-02-05T15:17:48.103Z,99600.94
2019-02-05T15:19:52.068Z,99600.29
2019-02-05T15:21:55.918Z,99597.75
2019-02-05T15:23:59.749Z,99602.50
2019-02-05T15:26:03.808Z,99600.53
2019-02-05T15:28:07.748Z,99599.29
2019-02-05T15:30:24.253Z,99599.16
2019-02-05T15:32:47.325Z,99599.58
2019-02-05T15:34:53.309Z,99601.69
2019-02-05T15:36:58.614Z,99596.00
2019-02-05T15:39:04.047Z,99594.02
2019-02-05T15:41:08.030Z,99597.77
2019-02-05T15:43:12.408Z,99598.52
2019-02-05T15:45:18.141Z,99593.83
2019-02-05T15:47:22.741Z,99598.27
2019-02-05T15:49:27.225Z,99596.78
2019-02-05T15:51:31.271Z,99604.42
2019-02-05T15:53:35.160Z,99596.41
2019-02-05T15:55:39.353Z,99610.43
2019-02-05T15:57:43.518Z,99608.47
2019-02-05T15:59:49.051Z,99613.89
2019-02-05T16:02:05.676Z,99616.78
2019-02-05T16:03:59.419Z,99619.16
2019-02-05T16:06:03.666Z,99625.77
2019-02-05T16:08:08.730Z,99618.53
2019-02-05T16:10:14.189Z,99624.61
2019-02-05T16:12:18.914Z,99622.44
2019-02-05T16:14:23.302Z,99618.94
2019-02-05T16:16:28.181Z,99625.03
2019-02-05T16:18:32.308Z,99624.36
2019-02-05T16:20:36.787Z,99622.02
2019-02-05T16:22:40.890Z,99626.73
2019-02-05T16:24:47.887Z,99631.95
2019-02-05T16:26:53.107Z,99628.26
2019-02-05T16:28:57.051Z,99631.45
2019-02-05T16:31:01.089Z,99635.50
2019-02-05T16:33:05.101Z,99636.02
2019-02-05T16:35:12.964Z,99639.57
2019-02-05T16:37:16.881Z,99642.93
2019-02-05T16:39:22.393Z,99645.48
2019-02-05T16:41:26.358Z,99640.61
2019-02-05T16:43:30.356Z,99644.15
2019-02-05T16:45:34.398Z,99650.01
2019-02-05T16:47:38.406Z,99652.21
2019-02-05T16:49:44.006Z,99654.72
2019-02-05T16:51:48.024Z,99651.55
2019-02-05T16:53:51.973Z,99659.09
2019-02-05T16:55:56.058Z,99661.29
2019-02-05T16:58:00.587Z,99659.92
2019-02-05T17:00:07.422Z,99664.63
2019-02-05T17:02:11.462Z,99667.15
2019-02-05T17:04:15.731Z,99669.84
2019-02-05T17:06:19.751Z,99671.86
2019-02-05T17:08:24.436Z,99678.25
2019-02-05T17:10:28.500Z,99672.52
2019-02-05T17:12:32.603Z,99678.89
2019-02-05T17:14:37.217Z,99679.39
2019-02-05T17:16:41.418Z,99680.90
2019-02-05T17:18:45.703Z,99686.59
2019-02-05T17:20:50.798Z,99699.70
2019-02-05T17:22:54.810Z,99700.02
2019-02-05T17:25:01.481Z,99695.50
2019-02-05T17:27:08.096Z,99703.73
2019-02-05T17:29:11.869Z,99700.38
2019-02-05T17:31:16.064Z,99705.39
2019-02-05T17:33:22.219Z,99702.36
2019-02-05T17:35:26.256Z,99707.21
2019-02-05T17:37:31.391Z,99702.30
2019-02-05T17:39:35.551Z,99700.61
2019-02-05T17:41:40.631Z,99704.32
2019-02-05T17:43:44.782Z,99705.66
2019-02-05T17:45:48.946Z,99711.88
2019-02-05T17:47:54.755Z,99704.50
2019-02-05T17:50:00.062Z,99704.17
2019-02-05T17:52:04.755Z,99708.55
2019-02-05T17:54:09.018Z,99710.89
2019-02-05T17:56:14.994Z,99710.72
2019-02-05T17:58:19.605Z,99714.25
2019-02-05T18:00:39.475Z,99718.42
2019-02-05T18:02:51.428Z,99715.20
2019-02-05T18:04:49.513Z,99715.70
2019-02-05T18:06:53.730Z,99718.37
2019-02-05T18:08:57.764Z,99719.69
2019-02-05T18:11:03.444Z,99718.34
2019-02-05T18:13:08.205Z,99726.22
2019-02-05T18:15:19.578Z,99726.70
2019-02-05T18:17:23.609Z,99721.20
2019-02-05T18:19:29.557Z,99719.02
2019-02-05T18:21:34.052Z,99726.26
2019-02-05T18:23:38.302Z,99737.00
2019-02-05T18:25:43.131Z,99734.31
2019-02-05T18:27:49.381Z,99733.46
2019-02-05T18:29:54.051Z,99722.68
2019-02-05T18:31:58.299Z,99723.34
2019-02-05T18:34:02.855Z,99725.85
2019-02-05T18:36:07.137Z,99720.66
2019-02-05T18:38:13.298Z,99713.28
2019-02-05T18:40:18.407Z,99708.94
2019-02-05T18:42:22.451Z,99707.60
2019-02-05T18:44:26.851Z,99710.28
2019-02-05T18:46:31.034Z,99707.74
2019-02-05T18:48:36.456Z,99701.34
2019-02-05T18:50:40.721Z,99701.16
2019-02-05T18:52:45.916Z,99700.98
2019-02-05T18:54:50.007Z,99699.11
2019-02-05T18:56:56.243Z,99699.59
2019-02-05T18:59:00.196Z,99696.73
2019-02-05T19:01:04.973Z,99711.44
2019-02-05T19:03:15.683Z,99707.73
2019-02-05T19:05:14.883Z,99701.01
2019-02-05T19:07:19.165Z,99704.53
2019-02-05T19:09:23.257Z,99703.83
2019-02-05T19:11:27.562Z,99701.14
2019-02-05T19:13:32.621Z,99703.64
2019-02-05T19:15:37.413Z,99707.84
2019-02-05T19:17:41.871Z,99709.35
2019-02-05T19:19:46.896Z,99702.96
2019-02-05T19:21:52.631Z,99705.64
2019-02-05T19:24:04.680Z,99711.48
2019-02-05T19:26:19.463Z,99714.34
2019-02-05T19:28:32.563Z,99711.50
2019-02-05T19:30:38.699Z,99713.02
2019-02-05T19:32:42.934Z,99706.86
2019-02-05T19:34:47.921Z,99712.03
2019-02-05T19:36:52.102Z,99712.34
2019-02-05T19:38:56.540Z,99709.62
2019-02-05T19:41:00.842Z,99707.11
2019-02-05T19:43:05.102Z,99706.92
2019-02-05T19:45:21.367Z,99705.23
2019-02-05T19:47:29.940Z,99706.55
2019-02-05T19:49:38.740Z,99707.89
2019-02-05T19:51:42.863Z,99703.52
2019-02-05T19:53:47.193Z,99712.22
2019-02-05T19:55:51.462Z,99705.83
2019-02-05T19:57:59.231Z,99710.87
2019-02-05T20:00:03.286Z,99700.81
2019-02-05T20:02:09.651Z,99709.66
2019-02-05T20:04:13.621Z,99705.98
2019-02-05T20:06:17.978Z,99710.50
2019-02-05T20:08:21.853Z,99704.78
2019-02-05T20:10:25.935Z,99702.59
2019-02-05T20:12:29.919Z,99701.42
2019-02-05T20:14:34.246Z,99701.23
2019-02-05T20:16:40.109Z,99704.58
2019-02-05T20:18:46.373Z,99703.05
2019-02-05T20:20:52.909Z,99704.70
2019-02-05T20:22:56.824Z,99696.96
2019-02-05T20:25:01.971Z,99704.64
2019-02-05T20:27:06.141Z,99692.56
2019-02-05T20:29:13.318Z,99692.21
2019-02-05T20:31:17.309Z,99692.08
2019-02-05T20:33:21.379Z,99697.25
2019-02-05T20:35:25.375Z,99699.08
2019-02-05T20:37:31.281Z,99703.09
2019-02-05T20:39:35.395Z,99706.27
2019-02-05T20:41:39.422Z,99703.76
2019-02-05T20:43:44.545Z,99702.55
2019-02-05T20:45:49.009Z,99700.40
2019-02-05T20:48:17.106Z,99694.52
2019-02-05T20:50:37.804Z,99697.01
2019-02-05T20:52:50.557Z,99705.70
2019-02-05T20:55:01.724Z,99705.38
2019-02-05T20:59:32.278Z,99705.38
2019-02-05T21:01:32.137Z,99699.86
2019-02-05T21:03:36.139Z,99706.91
2019-02-05T21:05:43.012Z,99703.22
2019-02-05T21:07:47.049Z,99702.72
2019-02-05T21:09:51.319Z,99705.59
2019-02-05T21:11:55.325Z,99710.78
2019-02-05T21:13:59.300Z,99708.29
2019-02-05T21:16:03.535Z,99716.38
2019-02-05T21:18:10.028Z,99714.02
2019-02-05T21:20:28.414Z,99717.36
2019-02-05T21:22:22.386Z,99718.19
2019-02-05T21:24:26.360Z,99715.34
2019-02-05T21:26:30.413Z,99713.98
2019-02-05T21:28:34.513Z,99714.59
2019-02-05T21:30:39.002Z,99716.53
2019-02-05T21:32:43.018Z,99720.34
2019-02-05T21:34:47.041Z,99727.63
2019-02-05T21:36:51.210Z,99724.92
2019-02-05T21:38:55.336Z,99730.09
2019-02-05T21:40:59.565Z,99728.73
2019-02-05T21:43:03.755Z,99733.04
2019-02-05T21:45:10.327Z,99738.20
2019-02-05T21:47:14.245Z,99737.13
2019-02-05T21:49:18.383Z,99741.94
2019-02-05T21:51:25.103Z,99740.20
2019-02-05T21:53:29.027Z,99743.38
2019-02-05T21:55:33.068Z,99743.83
2019-02-05T21:57:37.292Z,99746.50
2019-02-05T21:59:43.103Z,99740.17
2019-02-05T22:01:47.171Z,99739.06
2019-02-05T22:03:51.174Z,99739.03
2019-02-05T22:05:55.109Z,99742.39
2019-02-05T22:07:59.026Z,99744.77
2019-02-05T22:10:02.972Z,99742.06
2019-02-05T22:12:07.475Z,99742.00
2019-02-05T22:14:13.568Z,99739.33
2019-02-05T22:16:19.741Z,99743.63
2019-02-05T22:18:26.422Z,99741.97
2019-02-05T22:20:30.518Z,99743.50
2019-02-05T22:22:34.469Z,99739.81
2019-02-05T22:24:38.617Z,99737.85
2019-02-05T22:26:42.851Z,99736.06
2019-02-05T22:28:46.837Z,99729.77
2019-02-05T22:30:55.403Z,99732.66
2019-02-05T22:32:56.350Z,99739.06
2019-02-05T22:35:01.567Z,99732.76
2019-02-05T22:37:05.482Z,99734.29
2019-02-05T22:39:10.272Z,99731.97
2019-02-05T22:41:14.304Z,99736.12
2019-02-05T22:43:18.131Z,99728.58
2019-02-05T22:45:22.925Z,99731.25
2019-02-05T22:47:28.986Z,99727.70
2019-02-05T22:49:32.865Z,99730.18
2019-02-05T22:51:37.112Z,99728.32
2019-02-05T22:53:41.037Z,99732.14
2019-02-05T22:55:44.959Z,99728.62
2019-02-05T22:57:51.826Z,99728.06
2019-02-05T22:59:56.950Z,99737.23
2019-02-05T23:02:01.689Z,99727.48
2019-02-05T23:04:30.356Z,99729.77
2019-02-05T23:06:52.811Z,99725.91
2019-02-05T23:08:58.603Z,99732.89
2019-02-05T23:11:50.199Z,99732.20
2019-02-05T23:13:54.102Z,99734.52
2019-02-05T23:15:59.004Z,99732.01
2019-02-05T23:18:03.171Z,99729.04
2019-02-05T23:20:09.494Z,99729.85
2019-02-05T23:22:14.266Z,99729.85
2019-02-05T23:24:18.254Z,99730.58
2019-02-05T23:26:26.871Z,99728.58
2019-02-05T23:28:30.902Z,99729.92
2019-02-05T23:30:35.726Z,99730.12
2019-02-05T23:32:40.628Z,99736.16
2019-02-05T23:34:44.581Z,99731.66
2019-02-05T23:36:49.641Z,99727.64
2019-02-05T23:38:53.777Z,99730.97
2019-02-05T23:40:58.215Z,99727.90
2019-02-05T23:43:02.367Z,99732.85
2019-02-05T23:45:06.880Z,99741.47
2019-02-05T23:47:10.930Z,99740.87
2019-02-05T23:49:14.748Z,99739.62
2019-02-05T23:51:20.154Z,99741.61
2019-02-05T23:53:24.294Z,99731.39
2019-02-05T23:55:28.293Z,99734.23
2019-02-05T23:57:33.073Z,99732.53
2019-02-05T23:59:37.139Z,99733.87
